Gwinner, ND

12:19 PM CDT on July 22, 2017 (GMT -0500)
Gwinner-melroe

Weather History for KGWR - March, 2013

Change the Weather History Date:

Sunday, March 17, 2013

  Actual Average (KP67) Record (KP67)
Temperature  
Mean Temperature 14 °F -  
Max Temperature 30 °F 29 °F 37 °F (1998)
Min Temperature 1 °F 15 °F 7 °F (1997)
Degree Days  
Heating Degree Days 50    
Moisture  
Dew Point 10 °F    
Average Humidity 87    
Maximum Humidity 100    
Minimum Humidity 73    
Precipitation  
Precipitation 0.00 in - - ()
Sea Level Pressure  
Sea Level Pressure 29.92 in    
Wind  
Wind Speed 15 mph (ESE)    
Max Wind Speed 31 mph    
Max Gust Speed 37 mph    
Visibility 5 miles    
Events      
Averages and records for this station are not official NWS values.
T = Trace of Precipitation, MM = Missing Value Source: NWS Daily Summary

Daily Weather History Graph

Daily Weather History Graph

Search for Another Location

Airport or City:

Trip Planner

Search our weather history database for the weather conditions in past years. The results will help you decide how hot, cold, wet, or windy it might be!

Date:

Astronomy

Mar. 17, 2013 Rise Set
Actual Time 7:38 AM CDT 7:39 PM CDT
Civil Twilight 7:08 AM CDT 8:09 PM CDT
Nautical Twilight 6:34 AM CDT 8:44 PM CDT
Astronomical Twilight 5:58 AM CDT 9:20 PM CDT
Moon 10:34 AM CDT (3/17) 1:06 AM CDT (3/17)
Length of Visible Light 13h 00m
Length of Day
12h 00m
Waxing Crescent, 31% of the Moon is Illuminated
Mar 17
Waxing Crescent
Mar 19
First Quarter
Mar 27
Full
Apr 2
Last Quarter
Apr 10
New

Hourly Weather History & Observations

Time (CDT) Temp. Windchill Dew Point Humidity Pressure Visibility Wind Dir Wind Speed Gust Speed Precip Events Conditions
12:15 AM 1.4 °F -11.3 °F -4.0 °F 78% 30.26 in 10.0 mi NNE 6.9 mph - 0.00 in   Unknown
12:35 AM 1.4 °F -8.3 °F -2.2 °F 85% 30.26 in 10.0 mi NE 4.6 mph - 0.00 in   Unknown
12:55 AM 3.2 °F -7.8 °F -2.2 °F 78% 30.25 in 10.0 mi ENE 5.8 mph - 0.00 in   Clear
1:15 AM 1.4 °F -12.5 °F -2.2 °F 85% 30.24 in 10.0 mi NE 8.1 mph - 0.00 in   Clear
1:35 AM 1.4 °F -12.5 °F -4.0 °F 78% 30.23 in 10.0 mi NE 8.1 mph - 0.00 in   Unknown
1:55 AM 1.4 °F -12.5 °F -4.0 °F 78% 30.22 in 10.0 mi ENE 8.1 mph - 0.00 in   Clear
2:15 AM 1.4 °F -12.5 °F -2.2 °F 85% 30.22 in 10.0 mi NE 8.1 mph - 0.00 in   Clear
2:35 AM 1.4 °F -11.3 °F -4.0 °F 78% 30.22 in 10.0 mi ENE 6.9 mph - 0.00 in   Unknown
2:55 AM 1.4 °F -11.3 °F -4.0 °F 78% 30.22 in 10.0 mi ENE 6.9 mph - 0.00 in   Unknown
3:15 AM 1.4 °F -9.9 °F -2.2 °F 85% 30.22 in 10.0 mi ENE 5.8 mph - 0.00 in   Overcast
3:35 AM 3.2 °F -6.2 °F -0.4 °F 85% 30.22 in 10.0 mi ENE 4.6 mph - 0.00 in   Mostly Cloudy
3:55 AM 3.2 °F -10.3 °F -0.4 °F 85% 30.21 in 10.0 mi East 8.1 mph - 0.00 in   Unknown
4:15 AM 3.2 °F -10.3 °F -2.2 °F 78% 30.20 in 10.0 mi East 8.1 mph - 0.00 in   Overcast
4:35 AM 3.2 °F -12.2 °F -2.2 °F 78% 30.19 in 10.0 mi East 10.4 mph - 0.00 in   Overcast
4:55 AM 3.2 °F -13.1 °F -2.2 °F 78% 30.17 in 10.0 mi East 11.5 mph - 0.00 in   Overcast
5:35 AM 3.2 °F -13.1 °F -0.4 °F 85% 30.16 in 10.0 mi East 11.5 mph - 0.00 in   Unknown
5:55 AM 3.2 °F -11.3 °F -0.4 °F 85% 30.15 in 10.0 mi East 9.2 mph - 0.00 in   Overcast
6:15 AM 3.2 °F -13.1 °F -0.4 °F 85% 30.13 in 10.0 mi East 11.5 mph - 0.00 in   Unknown
6:35 AM 5.0 °F -12.3 °F -0.4 °F 78% 30.12 in 10.0 mi ESE 13.8 mph - 0.00 in   Unknown
6:55 AM 5.0 °F -11.6 °F -0.4 °F 78% 30.12 in 10.0 mi ESE 12.7 mph - 0.00 in   Unknown
7:15 AM 5.0 °F -13.0 °F 1.4 °F 85% 30.11 in 10.0 mi ESE 15.0 mph - 0.00 in   Unknown
7:35 AM 5.0 °F -11.6 °F 1.4 °F 85% 30.11 in 10.0 mi SE 12.7 mph - 0.00 in   Overcast
7:55 AM 5.0 °F -10.8 °F 1.4 °F 85% 30.10 in 10.0 mi SE 11.5 mph - 0.00 in   Unknown
8:15 AM 6.8 °F -11.8 °F 1.4 °F 79% 30.09 in 10.0 mi SE 17.3 mph - 0.00 in   Unknown
8:35 AM 8.6 °F -9.5 °F 1.4 °F 73% 30.08 in 9.0 mi SE 17.3 mph - 0.00 in   Overcast
8:55 AM 8.6 °F -9.5 °F 3.2 °F 79% 30.06 in 4.0 mi SE 17.3 mph - 0.00 in   Unknown
9:15 AM 8.6 °F -10.0 °F 3.2 °F 79% 30.05 in 1.2 mi SE 18.4 mph - 0.00 in   Unknown
9:35 AM 8.6 °F -11.0 °F 3.2 °F 79% 30.04 in 2.0 mi SE 20.7 mph - 0.00 in   Overcast
9:55 AM 8.6 °F -11.0 °F 3.2 °F 79% 30.03 in 2.0 mi SE 20.7 mph - 0.00 in   Unknown
10:15 AM 10.4 °F -9.5 °F 5.0 °F 79% 30.02 in 1.8 mi SE 23.0 mph 27.6 mph 0.00 in   Unknown
10:35 AM 10.4 °F -9.5 °F 5.0 °F 79% 30.01 in 3.0 mi SE 23.0 mph - 0.00 in   Mostly Cloudy
10:55 AM 10.4 °F -9.9 °F 5.0 °F 79% 29.99 in 3.0 mi SE 24.2 mph - 0.00 in   Unknown
11:15 AM 10.4 °F -9.5 °F 5.0 °F 79% 29.98 in 3.0 mi SE 23.0 mph 27.6 mph 0.00 in   Unknown
11:35 AM 12.2 °F -7.1 °F 6.8 °F 79% 29.97 in 3.0 mi SE 23.0 mph - 0.00 in   Overcast
11:55 AM 12.2 °F -8.6 °F 8.6 °F 85% 29.95 in 1.2 mi SE 27.6 mph 32.2 mph 0.00 in   Overcast
12:15 PM 12.2 °F -8.2 °F 8.6 °F 85% 29.95 in 1.2 mi SE 26.5 mph - 0.00 in   Unknown
12:35 PM 12.2 °F -7.5 °F 8.6 °F 85% 29.94 in 1.8 mi SE 24.2 mph - 0.00 in   Mostly Cloudy
1:15 PM 14.0 °F -6.2 °F 10.4 °F 86% 29.91 in 1.5 mi SE 27.6 mph - 0.00 in   Unknown
1:35 PM 14.0 °F -6.2 °F 10.4 °F 86% 29.90 in 1.8 mi SE 27.6 mph - 0.00 in   Overcast
1:55 PM 14.0 °F -5.1 °F 10.4 °F 86% 29.88 in 2.0 mi SE 24.2 mph - 0.00 in   Unknown
2:15 PM 15.8 °F -3.4 °F 12.2 °F 86% 29.87 in 2.0 mi SE 26.5 mph - 0.00 in   Unknown
2:35 PM 15.8 °F -3.1 °F 12.2 °F 86% 29.85 in 2.0 mi SE 25.3 mph - 0.00 in   Overcast
2:55 PM 17.6 °F -0.6 °F 14.0 °F 86% 29.83 in 1.8 mi SE 25.3 mph 29.9 mph 0.00 in   Unknown
3:15 PM 17.6 °F -1.0 °F 14.0 °F 86% 29.81 in 1.2 mi SE 26.5 mph 29.9 mph 0.00 in   Unknown
3:35 PM 17.6 °F -1.6 °F 14.0 °F 86% 29.78 in 1.0 mi SE 28.8 mph 34.5 mph 0.00 in   Overcast
3:55 PM 19.4 °F 1.4 °F 15.8 °F 86% 29.77 in 1.8 mi ESE 26.5 mph 32.2 mph 0.00 in   Overcast
4:15 PM 19.4 °F 1.4 °F 17.6 °F 93% 29.76 in 2.0 mi ESE 26.5 mph - 0.00 in   Overcast
4:35 PM 19.4 °F 0.5 °F 17.6 °F 93% 29.74 in 2.5 mi ESE 29.9 mph - 0.00 in   Overcast
4:55 PM 19.4 °F 1.1 °F 17.6 °F 93% 29.74 in 1.8 mi ESE 27.6 mph - 0.00 in   Overcast
5:15 PM 21.2 °F 4.2 °F 19.4 °F 93% 29.71 in 0.2 mi ESE 25.3 mph - 0.00 in   Overcast
5:35 PM 21.2 °F 4.5 °F 19.4 °F 93% 29.70 in 0.2 mi ESE 24.2 mph - 0.00 in   Overcast
5:55 PM 21.2 °F 3.9 °F 21.2 °F 100% 29.68 in 0.2 mi ESE 26.5 mph 32.2 mph 0.00 in   Overcast
6:15 PM 23.0 °F 5.7 °F 21.2 °F 93% 29.66 in 0.2 mi ESE 28.8 mph - 0.00 in   Overcast
6:35 PM 23.0 °F 5.4 °F 23.0 °F 100% 29.66 in 0.2 mi SE 29.9 mph 36.8 mph 0.00 in   Overcast
6:55 PM 23.0 °F 6.6 °F 23.0 °F 100% 29.65 in 0.2 mi ESE 25.3 mph - 0.00 in   Overcast
7:15 PM 23.0 °F 5.1 °F 23.0 °F 100% 29.64 in 0.2 mi SE 31.1 mph - 0.00 in   Overcast
7:35 PM 24.8 °F 8.1 °F 24.8 °F 100% 29.63 in 0.2 mi SE 28.8 mph - 0.00 in   Overcast
7:55 PM 24.8 °F 9.0 °F 24.8 °F 100% 29.63 in 0.2 mi SE 25.3 mph - 0.00 in   Overcast
8:15 PM 24.8 °F 9.3 °F 24.8 °F 100% 29.63 in 0.5 mi SE 24.2 mph - 0.00 in   Overcast
8:35 PM 26.6 °F 12.4 °F 26.6 °F 100% 29.63 in - SE 21.9 mph - 0.00 in   Unknown
8:55 PM 26.6 °F 12.0 °F 26.6 °F 100% 29.62 in 0.5 mi SE 23.0 mph - 0.00 in   Unknown
9:15 PM 26.6 °F 11.7 °F 26.6 °F 100% 29.61 in 1.2 mi SE 24.2 mph 29.9 mph 0.00 in   Overcast
9:35 PM 26.6 °F 12.0 °F 26.6 °F 100% 29.60 in 1.2 mi SE 23.0 mph - 0.00 in   Overcast
9:55 PM - - - N/A% 29.59 in 2.0 mi SE 23.0 mph - 0.00 in   Overcast
10:15 PM 28.4 °F 14.4 °F 28.4 °F 100% 29.59 in 2.5 mi SE 23.0 mph - 0.00 in   Overcast
10:35 PM 28.4 °F 14.7 °F 28.4 °F 100% 29.58 in 1.5 mi SE 21.9 mph - 0.00 in   Overcast
10:55 PM 28.4 °F 14.7 °F 28.4 °F 100% 29.57 in 2.0 mi SE 21.9 mph - 0.00 in   Overcast
11:15 PM 28.4 °F 15.4 °F 28.4 °F 100% 29.56 in 1.0 mi SE 19.6 mph - 0.00 in   Unknown
11:35 PM - - - N/A% 29.54 in 1.0 mi SE 20.7 mph - 0.00 in   Overcast
11:55 PM 30.2 °F 18.1 °F 30.2 °F 100% 29.53 in 3.0 mi SE 18.4 mph - 0.00 in   Overcast